sensor_id;sensor_type;location;lat;lon;timestamp;P1;durP1;ratioP1;P2;durP2;ratioP2
18320;SDS011;54904;54.350;18.664;2024-02-16T00:00:06;30.00;;;14.70;;
18320;SDS011;54904;54.350;18.664;2024-02-16T00:02:39;22.27;;;11.73;;
18320;SDS011;54904;54.350;18.664;2024-02-16T00:05:07;20.27;;;10.60;;
18320;SDS011;54904;54.350;18.664;2024-02-16T00:07:36;26.10;;;13.00;;
18320;SDS011;54904;54.350;18.664;2024-02-16T00:10:04;25.17;;;13.03;;
18320;SDS011;54904;54.350;18.664;2024-02-16T00:12:33;18.50;;;10.90;;
18320;SDS011;54904;54.350;18.664;2024-02-16T00:15:01;20.33;;;11.43;;
18320;SDS011;54904;54.350;18.664;2024-02-16T00:17:29;25.57;;;13.87;;
18320;SDS011;54904;54.350;18.664;2024-02-16T00:19:56;28.43;;;15.07;;
18320;SDS011;54904;54.350;18.664;2024-02-16T00:22:23;33.07;;;16.17;;
18320;SDS011;54904;54.350;18.664;2024-02-16T00:24:51;34.63;;;17.37;;
18320;SDS011;54904;54.350;18.664;2024-02-16T00:27:18;36.33;;;17.10;;
18320;SDS011;54904;54.350;18.664;2024-02-16T00:29:47;36.13;;;18.17;;
18320;SDS011;54904;54.350;18.664;2024-02-16T00:32:14;40.37;;;19.00;;
18320;SDS011;54904;54.350;18.664;2024-02-16T00:34:41;34.80;;;18.10;;
18320;SDS011;54904;54.350;18.664;2024-02-16T00:37:08;33.27;;;17.43;;
18320;SDS011;54904;54.350;18.664;2024-02-16T00:39:37;31.63;;;16.70;;
18320;SDS011;54904;54.350;18.664;2024-02-16T00:42:05;39.53;;;19.83;;
18320;SDS011;54904;54.350;18.664;2024-02-16T00:44:32;39.77;;;19.20;;
18320;SDS011;54904;54.350;18.664;2024-02-16T00:47:01;34.60;;;17.53;;
18320;SDS011;54904;54.350;18.664;2024-02-16T00:49:31;38.87;;;19.67;;
18320;SDS011;54904;54.350;18.664;2024-02-16T00:51:58;41.93;;;20.03;;
18320;SDS011;54904;54.350;18.664;2024-02-16T00:54:26;35.70;;;17.37;;
18320;SDS011;54904;54.350;18.664;2024-02-16T00:56:53;31.17;;;15.13;;
18320;SDS011;54904;54.350;18.664;2024-02-16T00:59:26;29.77;;;14.67;;
18320;SDS011;54904;54.350;18.664;2024-02-16T01:01:53;20.00;;;11.47;;
18320;SDS011;54904;54.350;18.664;2024-02-16T01:04:21;20.97;;;10.97;;
18320;SDS011;54904;54.350;18.664;2024-02-16T01:06:49;32.00;;;15.00;;
18320;SDS011;54904;54.350;18.664;2024-02-16T01:09:16;32.93;;;16.40;;
18320;SDS011;54904;54.350;18.664;2024-02-16T01:11:43;35.93;;;18.00;;
18320;SDS011;54904;54.350;18.664;2024-02-16T01:14:10;36.53;;;18.50;;
18320;SDS011;54904;54.350;18.664;2024-02-16T01:16:37;33.50;;;16.90;;
18320;SDS011;54904;54.350;18.664;2024-02-16T01:19:04;30.80;;;16.77;;
18320;SDS011;54904;54.350;18.664;2024-02-16T01:21:34;35.77;;;17.40;;
18320;SDS011;54904;54.350;18.664;2024-02-16T01:24:01;31.77;;;17.30;;
18320;SDS011;54904;54.350;18.664;2024-02-16T01:26:28;31.90;;;17.37;;
18320;SDS011;54904;54.350;18.664;2024-02-16T01:28:55;29.87;;;16.53;;
18320;SDS011;54904;54.350;18.664;2024-02-16T01:31:23;31.33;;;16.60;;
18320;SDS011;54904;54.350;18.664;2024-02-16T01:33:50;34.70;;;19.30;;
18320;SDS011;54904;54.350;18.664;2024-02-16T01:36:18;39.00;;;20.73;;
18320;SDS011;54904;54.350;18.664;2024-02-16T01:38:46;37.53;;;19.83;;
18320;SDS011;54904;54.350;18.664;2024-02-16T01:41:13;34.87;;;18.90;;
18320;SDS011;54904;54.350;18.664;2024-02-16T01:43:40;48.57;;;21.27;;
18320;SDS011;54904;54.350;18.664;2024-02-16T01:46:08;30.10;;;17.10;;
18320;SDS011;54904;54.350;18.664;2024-02-16T01:48:35;32.47;;;16.87;;
18320;SDS011;54904;54.350;18.664;2024-02-16T01:51:04;34.33;;;17.93;;
18320;SDS011;54904;54.350;18.664;2024-02-16T01:53:33;34.53;;;17.00;;
18320;SDS011;54904;54.350;18.664;2024-02-16T01:56:03;29.73;;;16.17;;
18320;SDS011;54904;54.350;18.664;2024-02-16T01:58:30;35.90;;;17.53;;
18320;SDS011;54904;54.350;18.664;2024-02-16T02:00:58;35.07;;;16.93;;
18320;SDS011;54904;54.350;18.664;2024-02-16T02:03:25;37.13;;;19.17;;
18320;SDS011;54904;54.350;18.664;2024-02-16T02:05:52;35.13;;;18.03;;
18320;SDS011;54904;54.350;18.664;2024-02-16T02:08:21;43.97;;;20.10;;
18320;SDS011;54904;54.350;18.664;2024-02-16T02:10:48;41.00;;;20.17;;
18320;SDS011;54904;54.350;18.664;2024-02-16T02:13:17;36.67;;;18.73;;
18320;SDS011;54904;54.350;18.664;2024-02-16T02:15:45;45.97;;;20.60;;
18320;SDS011;54904;54.350;18.664;2024-02-16T02:18:12;44.23;;;21.17;;
18320;SDS011;54904;54.350;18.664;2024-02-16T02:20:39;47.30;;;21.47;;
18320;SDS011;54904;54.350;18.664;2024-02-16T02:23:07;39.83;;;19.97;;
18320;SDS011;54904;54.350;18.664;2024-02-16T02:25:34;47.80;;;22.13;;
18320;SDS011;54904;54.350;18.664;2024-02-16T02:28:02;49.33;;;22.33;;
18320;SDS011;54904;54.350;18.664;2024-02-16T02:30:29;41.10;;;19.40;;
18320;SDS011;54904;54.350;18.664;2024-02-16T02:32:56;47.97;;;22.90;;
18320;SDS011;54904;54.350;18.664;2024-02-16T02:35:23;38.87;;;19.97;;
18320;SDS011;54904;54.350;18.664;2024-02-16T02:37:50;48.57;;;22.93;;
18320;SDS011;54904;54.350;18.664;2024-02-16T02:40:19;47.00;;;22.77;;
18320;SDS011;54904;54.350;18.664;2024-02-16T02:42:46;50.17;;;23.03;;
18320;SDS011;54904;54.350;18.664;2024-02-16T02:45:13;52.73;;;22.57;;
18320;SDS011;54904;54.350;18.664;2024-02-16T02:47:41;50.40;;;23.67;;
18320;SDS011;54904;54.350;18.664;2024-02-16T02:50:09;39.23;;;19.40;;
18320;SDS011;54904;54.350;18.664;2024-02-16T02:52:36;40.67;;;18.17;;
18320;SDS011;54904;54.350;18.664;2024-02-16T02:55:03;47.97;;;21.60;;
18320;SDS011;54904;54.350;18.664;2024-02-16T02:57:32;45.57;;;20.90;;
18320;SDS011;54904;54.350;18.664;2024-02-16T03:00:03;50.13;;;23.40;;
18320;SDS011;54904;54.350;18.664;2024-02-16T03:02:35;56.67;;;25.23;;
18320;SDS011;54904;54.350;18.664;2024-02-16T03:05:04;44.33;;;21.63;;
18320;SDS011;54904;54.350;18.664;2024-02-16T03:07:32;48.13;;;22.00;;
18320;SDS011;54904;54.350;18.664;2024-02-16T03:09:59;47.50;;;22.37;;
18320;SDS011;54904;54.350;18.664;2024-02-16T03:12:26;44.57;;;22.37;;
18320;SDS011;54904;54.350;18.664;2024-02-16T03:14:54;54.13;;;24.93;;
18320;SDS011;54904;54.350;18.664;2024-02-16T03:17:22;48.40;;;24.03;;
18320;SDS011;54904;54.350;18.664;2024-02-16T03:19:49;41.07;;;19.20;;
18320;SDS011;54904;54.350;18.664;2024-02-16T03:22:16;44.43;;;20.83;;
18320;SDS011;54904;54.350;18.664;2024-02-16T03:24:43;44.90;;;22.07;;
18320;SDS011;54904;54.350;18.664;2024-02-16T03:27:11;44.20;;;21.27;;
18320;SDS011;54904;54.350;18.664;2024-02-16T03:29:39;42.20;;;20.10;;
18320;SDS011;54904;54.350;18.664;2024-02-16T03:32:07;45.40;;;22.40;;
18320;SDS011;54904;54.350;18.664;2024-02-16T03:34:34;43.23;;;21.27;;
18320;SDS011;54904;54.350;18.664;2024-02-16T03:37:02;48.77;;;24.07;;
18320;SDS011;54904;54.350;18.664;2024-02-16T03:39:29;48.23;;;24.07;;
18320;SDS011;54904;54.350;18.664;2024-02-16T03:41:56;50.70;;;24.47;;
18320;SDS011;54904;54.350;18.664;2024-02-16T03:44:23;45.20;;;22.80;;
18320;SDS011;54904;54.350;18.664;2024-02-16T03:46:50;45.07;;;22.47;;
18320;SDS011;54904;54.350;18.664;2024-02-16T03:49:18;43.37;;;21.80;;
18320;SDS011;54904;54.350;18.664;2024-02-16T03:51:45;42.67;;;21.00;;
18320;SDS011;54904;54.350;18.664;2024-02-16T03:54:13;42.53;;;21.33;;
18320;SDS011;54904;54.350;18.664;2024-02-16T03:56:40;45.30;;;22.90;;
18320;SDS011;54904;54.350;18.664;2024-02-16T03:59:07;38.87;;;21.87;;
18320;SDS011;54904;54.350;18.664;2024-02-16T04:01:35;35.23;;;19.23;;
18320;SDS011;54904;54.350;18.664;2024-02-16T04:04:02;34.60;;;18.17;;
18320;SDS011;54904;54.350;18.664;2024-02-16T04:06:31;27.73;;;15.43;;
18320;SDS011;54904;54.350;18.664;2024-02-16T04:08:58;27.83;;;15.70;;
18320;SDS011;54904;54.350;18.664;2024-02-16T04:11:25;32.13;;;17.00;;
18320;SDS011;54904;54.350;18.664;2024-02-16T04:13:54;33.47;;;17.63;;
18320;SDS011;54904;54.350;18.664;2024-02-16T04:16:21;33.00;;;18.47;;
18320;SDS011;54904;54.350;18.664;2024-02-16T04:18:50;33.20;;;18.67;;
18320;SDS011;54904;54.350;18.664;2024-02-16T04:21:17;34.23;;;19.07;;
18320;SDS011;54904;54.350;18.664;2024-02-16T04:23:45;33.43;;;18.33;;
18320;SDS011;54904;54.350;18.664;2024-02-16T04:26:12;32.57;;;18.73;;
18320;SDS011;54904;54.350;18.664;2024-02-16T04:28:40;32.63;;;18.10;;
18320;SDS011;54904;54.350;18.664;2024-02-16T04:31:07;45.17;;;21.80;;
18320;SDS011;54904;54.350;18.664;2024-02-16T04:33:34;33.20;;;18.40;;
18320;SDS011;54904;54.350;18.664;2024-02-16T04:36:01;39.20;;;21.17;;
18320;SDS011;54904;54.350;18.664;2024-02-16T04:38:29;51.27;;;25.90;;
18320;SDS011;54904;54.350;18.664;2024-02-16T04:40:57;46.63;;;25.13;;
18320;SDS011;54904;54.350;18.664;2024-02-16T04:43:24;52.60;;;26.67;;
18320;SDS011;54904;54.350;18.664;2024-02-16T04:45:52;53.63;;;28.27;;
18320;SDS011;54904;54.350;18.664;2024-02-16T04:48:19;51.40;;;26.17;;
18320;SDS011;54904;54.350;18.664;2024-02-16T04:50:46;49.43;;;26.17;;
18320;SDS011;54904;54.350;18.664;2024-02-16T04:53:13;50.90;;;27.30;;
18320;SDS011;54904;54.350;18.664;2024-02-16T04:55:40;51.67;;;27.20;;
18320;SDS011;54904;54.350;18.664;2024-02-16T04:58:09;51.90;;;27.20;;
18320;SDS011;54904;54.350;18.664;2024-02-16T05:00:36;53.23;;;29.13;;
18320;SDS011;54904;54.350;18.664;2024-02-16T05:03:04;46.43;;;26.70;;
18320;SDS011;54904;54.350;18.664;2024-02-16T05:05:31;46.63;;;25.67;;
18320;SDS011;54904;54.350;18.664;2024-02-16T05:07:58;48.60;;;26.40;;
18320;SDS011;54904;54.350;18.664;2024-02-16T05:10:26;54.43;;;28.63;;
18320;SDS011;54904;54.350;18.664;2024-02-16T05:12:53;47.30;;;26.63;;
18320;SDS011;54904;54.350;18.664;2024-02-16T05:15:22;45.90;;;25.13;;
18320;SDS011;54904;54.350;18.664;2024-02-16T05:17:49;43.43;;;25.17;;
18320;SDS011;54904;54.350;18.664;2024-02-16T05:20:16;41.17;;;22.90;;
18320;SDS011;54904;54.350;18.664;2024-02-16T05:22:45;42.30;;;24.97;;
18320;SDS011;54904;54.350;18.664;2024-02-16T05:25:14;44.40;;;26.17;;
18320;SDS011;54904;54.350;18.664;2024-02-16T05:27:43;46.07;;;26.27;;
18320;SDS011;54904;54.350;18.664;2024-02-16T05:30:10;51.40;;;29.00;;
18320;SDS011;54904;54.350;18.664;2024-02-16T05:32:42;52.13;;;29.93;;
18320;SDS011;54904;54.350;18.664;2024-02-16T05:35:09;46.33;;;26.13;;
18320;SDS011;54904;54.350;18.664;2024-02-16T05:37:38;49.10;;;27.93;;
18320;SDS011;54904;54.350;18.664;2024-02-16T05:40:07;48.30;;;27.57;;
18320;SDS011;54904;54.350;18.664;2024-02-16T05:42:45;41.33;;;24.03;;
18320;SDS011;54904;54.350;18.664;2024-02-16T05:45:13;53.60;;;28.53;;
18320;SDS011;54904;54.350;18.664;2024-02-16T05:47:42;52.30;;;26.33;;
18320;SDS011;54904;54.350;18.664;2024-02-16T05:50:11;41.53;;;23.90;;
18320;SDS011;54904;54.350;18.664;2024-02-16T05:52:39;37.83;;;23.23;;
18320;SDS011;54904;54.350;18.664;2024-02-16T05:55:07;45.23;;;25.13;;
18320;SDS011;54904;54.350;18.664;2024-02-16T05:57:34;43.83;;;26.50;;
18320;SDS011;54904;54.350;18.664;2024-02-16T06:00:02;54.93;;;28.17;;
18320;SDS011;54904;54.350;18.664;2024-02-16T06:02:31;42.97;;;24.90;;
18320;SDS011;54904;54.350;18.664;2024-02-16T06:04:59;47.23;;;25.63;;
18320;SDS011;54904;54.350;18.664;2024-02-16T06:07:28;48.17;;;26.93;;
18320;SDS011;54904;54.350;18.664;2024-02-16T06:09:55;54.03;;;27.47;;
18320;SDS011;54904;54.350;18.664;2024-02-16T06:12:23;50.10;;;27.30;;
18320;SDS011;54904;54.350;18.664;2024-02-16T06:14:50;47.70;;;26.03;;
18320;SDS011;54904;54.350;18.664;2024-02-16T06:17:18;51.73;;;28.00;;
18320;SDS011;54904;54.350;18.664;2024-02-16T06:19:46;47.93;;;26.63;;
18320;SDS011;54904;54.350;18.664;2024-02-16T06:22:14;49.13;;;26.57;;
18320;SDS011;54904;54.350;18.664;2024-02-16T06:24:41;45.17;;;26.23;;
18320;SDS011;54904;54.350;18.664;2024-02-16T06:27:09;42.73;;;24.83;;
18320;SDS011;54904;54.350;18.664;2024-02-16T06:29:36;39.90;;;22.40;;
18320;SDS011;54904;54.350;18.664;2024-02-16T06:32:04;34.97;;;20.27;;
18320;SDS011;54904;54.350;18.664;2024-02-16T06:34:31;39.07;;;21.40;;
18320;SDS011;54904;54.350;18.664;2024-02-16T06:36:58;49.10;;;24.23;;
18320;SDS011;54904;54.350;18.664;2024-02-16T06:39:27;44.20;;;22.53;;
18320;SDS011;54904;54.350;18.664;2024-02-16T06:41:56;43.30;;;22.43;;
18320;SDS011;54904;54.350;18.664;2024-02-16T06:44:23;32.60;;;19.57;;
18320;SDS011;54904;54.350;18.664;2024-02-16T06:46:50;33.57;;;19.20;;
18320;SDS011;54904;54.350;18.664;2024-02-16T06:49:17;37.30;;;19.67;;
18320;SDS011;54904;54.350;18.664;2024-02-16T06:51:44;32.03;;;18.70;;
18320;SDS011;54904;54.350;18.664;2024-02-16T06:54:11;33.87;;;18.60;;
18320;SDS011;54904;54.350;18.664;2024-02-16T06:56:41;30.23;;;18.27;;
18320;SDS011;54904;54.350;18.664;2024-02-16T06:59:08;31.80;;;18.17;;
18320;SDS011;54904;54.350;18.664;2024-02-16T07:01:35;36.53;;;20.00;;
18320;SDS011;54904;54.350;18.664;2024-02-16T07:04:02;37.23;;;21.50;;
18320;SDS011;54904;54.350;18.664;2024-02-16T07:06:31;35.83;;;20.50;;
18320;SDS011;54904;54.350;18.664;2024-02-16T07:08:58;34.23;;;20.07;;
18320;SDS011;54904;54.350;18.664;2024-02-16T07:11:25;35.77;;;18.70;;
18320;SDS011;54904;54.350;18.664;2024-02-16T07:13:53;38.23;;;21.23;;
18320;SDS011;54904;54.350;18.664;2024-02-16T07:16:21;32.90;;;19.53;;
18320;SDS011;54904;54.350;18.664;2024-02-16T07:18:48;32.77;;;19.20;;
18320;SDS011;54904;54.350;18.664;2024-02-16T07:21:15;28.70;;;16.90;;
18320;SDS011;54904;54.350;18.664;2024-02-16T07:23:46;32.00;;;18.93;;
18320;SDS011;54904;54.350;18.664;2024-02-16T07:26:13;34.13;;;19.57;;
18320;SDS011;54904;54.350;18.664;2024-02-16T07:28:42;35.73;;;20.00;;
18320;SDS011;54904;54.350;18.664;2024-02-16T07:31:10;31.77;;;18.63;;
18320;SDS011;54904;54.350;18.664;2024-02-16T07:33:39;36.57;;;20.13;;
18320;SDS011;54904;54.350;18.664;2024-02-16T07:36:07;36.70;;;19.50;;
18320;SDS011;54904;54.350;18.664;2024-02-16T07:38:34;33.80;;;20.47;;
18320;SDS011;54904;54.350;18.664;2024-02-16T07:41:02;33.63;;;19.27;;
18320;SDS011;54904;54.350;18.664;2024-02-16T07:43:31;37.40;;;20.50;;
18320;SDS011;54904;54.350;18.664;2024-02-16T07:45:58;34.20;;;18.20;;
18320;SDS011;54904;54.350;18.664;2024-02-16T07:48:26;35.57;;;19.60;;
18320;SDS011;54904;54.350;18.664;2024-02-16T07:50:53;36.67;;;20.60;;
18320;SDS011;54904;54.350;18.664;2024-02-16T07:53:23;34.00;;;20.47;;
18320;SDS011;54904;54.350;18.664;2024-02-16T07:55:50;33.23;;;19.30;;
18320;SDS011;54904;54.350;18.664;2024-02-16T07:58:17;37.00;;;20.43;;
18320;SDS011;54904;54.350;18.664;2024-02-16T08:00:44;31.97;;;18.57;;
18320;SDS011;54904;54.350;18.664;2024-02-16T08:03:11;33.00;;;18.93;;
18320;SDS011;54904;54.350;18.664;2024-02-16T08:05:40;34.97;;;19.67;;
18320;SDS011;54904;54.350;18.664;2024-02-16T08:08:07;36.13;;;19.80;;
18320;SDS011;54904;54.350;18.664;2024-02-16T08:10:34;37.20;;;20.00;;
18320;SDS011;54904;54.350;18.664;2024-02-16T08:13:01;33.70;;;18.17;;
18320;SDS011;54904;54.350;18.664;2024-02-16T08:15:28;30.87;;;19.00;;
18320;SDS011;54904;54.350;18.664;2024-02-16T08:17:56;35.93;;;19.23;;
18320;SDS011;54904;54.350;18.664;2024-02-16T08:20:23;35.23;;;20.77;;
18320;SDS011;54904;54.350;18.664;2024-02-16T08:22:52;34.57;;;19.27;;
18320;SDS011;54904;54.350;18.664;2024-02-16T08:25:19;36.97;;;20.07;;
18320;SDS011;54904;54.350;18.664;2024-02-16T08:27:47;35.67;;;19.37;;
18320;SDS011;54904;54.350;18.664;2024-02-16T08:30:15;29.00;;;17.43;;
18320;SDS011;54904;54.350;18.664;2024-02-16T08:32:43;32.20;;;18.17;;
18320;SDS011;54904;54.350;18.664;2024-02-16T08:35:10;33.80;;;19.20;;
18320;SDS011;54904;54.350;18.664;2024-02-16T08:37:39;35.10;;;20.13;;
18320;SDS011;54904;54.350;18.664;2024-02-16T08:40:09;33.50;;;19.20;;
18320;SDS011;54904;54.350;18.664;2024-02-16T08:42:39;35.63;;;19.73;;
18320;SDS011;54904;54.350;18.664;2024-02-16T08:45:07;29.47;;;18.33;;
18320;SDS011;54904;54.350;18.664;2024-02-16T08:47:35;33.13;;;18.50;;
18320;SDS011;54904;54.350;18.664;2024-02-16T08:50:04;25.67;;;15.17;;
18320;SDS011;54904;54.350;18.664;2024-02-16T08:52:32;26.80;;;15.40;;
18320;SDS011;54904;54.350;18.664;2024-02-16T08:54:59;33.03;;;19.60;;
18320;SDS011;54904;54.350;18.664;2024-02-16T08:57:28;31.43;;;18.13;;
18320;SDS011;54904;54.350;18.664;2024-02-16T08:59:55;28.57;;;16.70;;
18320;SDS011;54904;54.350;18.664;2024-02-16T09:02:22;31.77;;;18.20;;
18320;SDS011;54904;54.350;18.664;2024-02-16T09:04:49;28.93;;;17.60;;
18320;SDS011;54904;54.350;18.664;2024-02-16T09:07:16;28.60;;;16.80;;
18320;SDS011;54904;54.350;18.664;2024-02-16T09:09:43;25.50;;;15.27;;
18320;SDS011;54904;54.350;18.664;2024-02-16T09:12:11;26.93;;;15.17;;
18320;SDS011;54904;54.350;18.664;2024-02-16T09:14:39;30.47;;;16.87;;
18320;SDS011;54904;54.350;18.664;2024-02-16T09:17:07;27.57;;;16.77;;
18320;SDS011;54904;54.350;18.664;2024-02-16T09:19:34;28.53;;;17.10;;
18320;SDS011;54904;54.350;18.664;2024-02-16T09:22:01;27.53;;;16.97;;
18320;SDS011;54904;54.350;18.664;2024-02-16T09:24:28;27.17;;;16.60;;
18320;SDS011;54904;54.350;18.664;2024-02-16T09:26:57;28.23;;;17.13;;
18320;SDS011;54904;54.350;18.664;2024-02-16T09:29:28;25.70;;;16.63;;
18320;SDS011;54904;54.350;18.664;2024-02-16T09:31:57;25.30;;;15.57;;
18320;SDS011;54904;54.350;18.664;2024-02-16T09:34:24;24.03;;;14.57;;
18320;SDS011;54904;54.350;18.664;2024-02-16T09:36:52;23.47;;;14.03;;
18320;SDS011;54904;54.350;18.664;2024-02-16T09:39:19;23.70;;;14.60;;
18320;SDS011;54904;54.350;18.664;2024-02-16T09:41:48;21.77;;;13.83;;
18320;SDS011;54904;54.350;18.664;2024-02-16T09:44:17;26.70;;;15.43;;
18320;SDS011;54904;54.350;18.664;2024-02-16T09:46:45;23.00;;;14.70;;
18320;SDS011;54904;54.350;18.664;2024-02-16T09:49:14;22.00;;;14.80;;
18320;SDS011;54904;54.350;18.664;2024-02-16T09:51:41;24.23;;;15.77;;
18320;SDS011;54904;54.350;18.664;2024-02-16T09:54:08;23.23;;;14.17;;
18320;SDS011;54904;54.350;18.664;2024-02-16T09:56:36;19.70;;;12.23;;
18320;SDS011;54904;54.350;18.664;2024-02-16T09:59:04;26.10;;;14.27;;
18320;SDS011;54904;54.350;18.664;2024-02-16T10:01:32;19.20;;;12.33;;
18320;SDS011;54904;54.350;18.664;2024-02-16T10:03:59;18.30;;;12.60;;
18320;SDS011;54904;54.350;18.664;2024-02-16T10:06:39;16.63;;;10.63;;
18320;SDS011;54904;54.350;18.664;2024-02-16T10:09:21;21.17;;;12.63;;
18320;SDS011;54904;54.350;18.664;2024-02-16T10:11:49;18.90;;;11.87;;
18320;SDS011;54904;54.350;18.664;2024-02-16T10:14:16;16.77;;;11.23;;
18320;SDS011;54904;54.350;18.664;2024-02-16T10:16:44;16.77;;;11.00;;
18320;SDS011;54904;54.350;18.664;2024-02-16T10:19:12;19.83;;;12.63;;
18320;SDS011;54904;54.350;18.664;2024-02-16T10:21:41;17.70;;;11.27;;
18320;SDS011;54904;54.350;18.664;2024-02-16T10:24:08;16.10;;;10.10;;
18320;SDS011;54904;54.350;18.664;2024-02-16T10:26:39;16.57;;;10.50;;
18320;SDS011;54904;54.350;18.664;2024-02-16T10:29:08;14.23;;;9.20;;
18320;SDS011;54904;54.350;18.664;2024-02-16T10:31:36;15.70;;;10.23;;
18320;SDS011;54904;54.350;18.664;2024-02-16T10:34:04;17.80;;;10.97;;
18320;SDS011;54904;54.350;18.664;2024-02-16T10:36:32;18.20;;;10.63;;
18320;SDS011;54904;54.350;18.664;2024-02-16T10:39:02;15.07;;;9.90;;
18320;SDS011;54904;54.350;18.664;2024-02-16T10:41:33;13.73;;;8.63;;
18320;SDS011;54904;54.350;18.664;2024-02-16T10:44:01;15.40;;;10.10;;
18320;SDS011;54904;54.350;18.664;2024-02-16T10:46:29;14.30;;;8.70;;
18320;SDS011;54904;54.350;18.664;2024-02-16T10:48:57;14.43;;;8.48;;
18320;SDS011;54904;54.350;18.664;2024-02-16T10:51:27;16.73;;;9.65;;
18320;SDS011;54904;54.350;18.664;2024-02-16T10:53:57;14.87;;;9.57;;
18320;SDS011;54904;54.350;18.664;2024-02-16T10:56:32;18.42;;;9.80;;
18320;SDS011;54904;54.350;18.664;2024-02-16T10:59:03;12.32;;;8.45;;
18320;SDS011;54904;54.350;18.664;2024-02-16T11:01:32;14.95;;;8.45;;
18320;SDS011;54904;54.350;18.664;2024-02-16T11:04:04;14.80;;;8.63;;
18320;SDS011;54904;54.350;18.664;2024-02-16T11:06:44;16.80;;;9.27;;
18320;SDS011;54904;54.350;18.664;2024-02-16T11:09:25;17.23;;;10.05;;
18320;SDS011;54904;54.350;18.664;2024-02-16T11:11:53;13.70;;;8.83;;
18320;SDS011;54904;54.350;18.664;2024-02-16T11:14:21;13.43;;;8.53;;
18320;SDS011;54904;54.350;18.664;2024-02-16T11:16:53;14.90;;;8.47;;
18320;SDS011;54904;54.350;18.664;2024-02-16T11:19:22;16.95;;;9.63;;
18320;SDS011;54904;54.350;18.664;2024-02-16T11:21:56;16.38;;;9.52;;
18320;SDS011;54904;54.350;18.664;2024-02-16T11:24:32;16.85;;;9.82;;
18320;SDS011;54904;54.350;18.664;2024-02-16T11:27:03;16.20;;;8.65;;
18320;SDS011;54904;54.350;18.664;2024-02-16T11:29:31;15.40;;;9.10;;
18320;SDS011;54904;54.350;18.664;2024-02-16T11:32:01;14.35;;;8.90;;
18320;SDS011;54904;54.350;18.664;2024-02-16T11:34:29;16.33;;;9.23;;
18320;SDS011;54904;54.350;18.664;2024-02-16T11:36:57;16.23;;;9.53;;
18320;SDS011;54904;54.350;18.664;2024-02-16T11:39:25;13.23;;;7.83;;
18320;SDS011;54904;54.350;18.664;2024-02-16T11:42:03;15.63;;;8.40;;
18320;SDS011;54904;54.350;18.664;2024-02-16T11:44:31;14.17;;;8.47;;
18320;SDS011;54904;54.350;18.664;2024-02-16T11:46:59;18.53;;;9.70;;
18320;SDS011;54904;54.350;18.664;2024-02-16T11:49:27;13.77;;;9.30;;
18320;SDS011;54904;54.350;18.664;2024-02-16T11:51:55;15.77;;;10.10;;
18320;SDS011;54904;54.350;18.664;2024-02-16T11:54:23;16.43;;;9.43;;
18320;SDS011;54904;54.350;18.664;2024-02-16T11:56:50;17.07;;;9.50;;
18320;SDS011;54904;54.350;18.664;2024-02-16T11:59:20;17.10;;;10.40;;
18320;SDS011;54904;54.350;18.664;2024-02-16T12:01:51;17.40;;;10.10;;
18320;SDS011;54904;54.350;18.664;2024-02-16T12:04:20;15.67;;;9.33;;
18320;SDS011;54904;54.350;18.664;2024-02-16T12:06:50;15.87;;;8.87;;
18320;SDS011;54904;54.350;18.664;2024-02-16T12:09:18;14.90;;;9.27;;
18320;SDS011;54904;54.350;18.664;2024-02-16T12:11:46;16.90;;;9.27;;
18320;SDS011;54904;54.350;18.664;2024-02-16T12:14:52;21.53;;;9.90;;
18320;SDS011;54904;54.350;18.664;2024-02-16T12:17:20;17.40;;;10.70;;
18320;SDS011;54904;54.350;18.664;2024-02-16T12:19:47;14.53;;;9.63;;
18320;SDS011;54904;54.350;18.664;2024-02-16T12:22:16;15.30;;;9.67;;
18320;SDS011;54904;54.350;18.664;2024-02-16T12:24:44;18.40;;;11.00;;
18320;SDS011;54904;54.350;18.664;2024-02-16T12:27:11;14.87;;;9.40;;
18320;SDS011;54904;54.350;18.664;2024-02-16T12:29:39;14.50;;;9.57;;
18320;SDS011;54904;54.350;18.664;2024-02-16T12:32:08;16.17;;;9.75;;
18320;SDS011;54904;54.350;18.664;2024-02-16T12:34:36;15.87;;;10.07;;
18320;SDS011;54904;54.350;18.664;2024-02-16T12:37:04;14.47;;;9.43;;
18320;SDS011;54904;54.350;18.664;2024-02-16T12:39:33;12.80;;;9.43;;
18320;SDS011;54904;54.350;18.664;2024-02-16T12:42:00;13.67;;;8.40;;
18320;SDS011;54904;54.350;18.664;2024-02-16T12:44:28;14.73;;;9.47;;
18320;SDS011;54904;54.350;18.664;2024-02-16T12:46:55;17.43;;;10.07;;
18320;SDS011;54904;54.350;18.664;2024-02-16T12:49:24;14.60;;;9.07;;
18320;SDS011;54904;54.350;18.664;2024-02-16T12:51:51;16.63;;;10.00;;
18320;SDS011;54904;54.350;18.664;2024-02-16T12:54:19;14.43;;;9.17;;
18320;SDS011;54904;54.350;18.664;2024-02-16T12:56:47;16.23;;;10.27;;
18320;SDS011;54904;54.350;18.664;2024-02-16T12:59:15;14.70;;;8.80;;
18320;SDS011;54904;54.350;18.664;2024-02-16T13:01:42;16.23;;;9.93;;
18320;SDS011;54904;54.350;18.664;2024-02-16T13:04:09;13.87;;;9.67;;
18320;SDS011;54904;54.350;18.664;2024-02-16T13:06:38;15.53;;;9.57;;
18320;SDS011;54904;54.350;18.664;2024-02-16T13:09:05;14.13;;;9.60;;
18320;SDS011;54904;54.350;18.664;2024-02-16T13:11:33;17.80;;;10.90;;
18320;SDS011;54904;54.350;18.664;2024-02-16T13:14:00;15.27;;;9.73;;
18320;SDS011;54904;54.350;18.664;2024-02-16T13:16:27;16.80;;;10.63;;
18320;SDS011;54904;54.350;18.664;2024-02-16T13:18:55;15.07;;;9.00;;
18320;SDS011;54904;54.350;18.664;2024-02-16T13:21:22;18.03;;;9.77;;
18320;SDS011;54904;54.350;18.664;2024-02-16T13:23:51;18.20;;;9.77;;
18320;SDS011;54904;54.350;18.664;2024-02-16T13:26:18;16.77;;;10.63;;
18320;SDS011;54904;54.350;18.664;2024-02-16T13:28:45;18.80;;;9.63;;
18320;SDS011;54904;54.350;18.664;2024-02-16T13:31:12;17.20;;;9.87;;
18320;SDS011;54904;54.350;18.664;2024-02-16T13:33:39;14.10;;;8.80;;
18320;SDS011;54904;54.350;18.664;2024-02-16T13:36:07;17.40;;;10.23;;
18320;SDS011;54904;54.350;18.664;2024-02-16T13:38:34;16.03;;;10.13;;
18320;SDS011;54904;54.350;18.664;2024-02-16T13:41:03;22.00;;;9.87;;
18320;SDS011;54904;54.350;18.664;2024-02-16T13:43:30;18.43;;;10.83;;
18320;SDS011;54904;54.350;18.664;2024-02-16T13:45:58;16.30;;;10.30;;
18320;SDS011;54904;54.350;18.664;2024-02-16T13:48:25;17.27;;;9.73;;
18320;SDS011;54904;54.350;18.664;2024-02-16T13:50:53;18.03;;;10.17;;
18320;SDS011;54904;54.350;18.664;2024-02-16T13:53:21;14.63;;;9.53;;
18320;SDS011;54904;54.350;18.664;2024-02-16T13:55:48;15.40;;;9.70;;
18320;SDS011;54904;54.350;18.664;2024-02-16T13:58:17;19.60;;;10.70;;
18320;SDS011;54904;54.350;18.664;2024-02-16T14:00:44;22.90;;;11.20;;
18320;SDS011;54904;54.350;18.664;2024-02-16T14:03:11;16.30;;;10.70;;
18320;SDS011;54904;54.350;18.664;2024-02-16T14:05:40;20.53;;;12.30;;
18320;SDS011;54904;54.350;18.664;2024-02-16T14:08:08;18.93;;;10.77;;
18320;SDS011;54904;54.350;18.664;2024-02-16T14:10:36;18.53;;;10.80;;
18320;SDS011;54904;54.350;18.664;2024-02-16T14:13:03;16.43;;;10.43;;
18320;SDS011;54904;54.350;18.664;2024-02-16T14:15:32;15.47;;;10.20;;